Time;durP1;ratioP1;P1;durP2;ratioP2;P2;SDS_P1;SDS_P2;PMS_P1;PMS_P2;Temp;Humidity;BMP_temperature;BMP_pressure;BME280_temperature;BME280_humidity;BME280_pressure;Samples;Min_cycle;Max_cycle;Signal;HPM_P1;HPM_P2
2022/04/26 03:37:45;;;;;;;2.20;0.88;;;21.70;99.90;;;;;;5087713;28;20402;-87
2022/04/26 03:40:12;;;;;;;2.40;0.90;;;21.90;99.90;;;;;;5086492;28;20423;-87
2022/04/26 03:42:39;;;;;;;2.38;0.82;;;21.90;99.90;;;;;;5088165;28;20743;-87
2022/04/26 03:45:06;;;;;;;1.92;0.80;;;22.00;99.90;;;;;;5087721;28;20365;-89
2022/04/26 03:47:33;;;;;;;1.65;0.63;;;21.80;99.90;;;;;;5087831;28;20391;-87
2022/04/26 03:50:00;;;;;;;2.85;0.90;;;21.90;99.90;;;;;;5087718;28;20369;-87
2022/04/26 03:52:30;;;;;;;0.88;0.60;;;21.80;99.90;;;;;;5087629;28;20377;-87
2022/04/26 03:54:57;;;;;;;1.95;0.80;;;21.80;99.90;;;;;;5069509;28;20736;-87
2022/04/26 03:57:24;;;;;;;1.90;0.80;;;21.70;99.90;;;;;;5087527;28;20407;-87
2022/04/26 03:59:51;;;;;;;1.90;0.70;;;21.60;99.90;;;;;;5069673;28;20722;-87
2022/04/26 04:02:19;;;;;;;1.98;0.80;;;21.70;99.90;;;;;;5087660;28;20380;-87
2022/04/26 04:04:46;;;;;;;1.43;0.80;;;21.80;99.90;;;;;;5069550;28;20379;-88
2022/04/26 04:07:13;;;;;;;1.23;0.80;;;22.00;99.90;;;;;;5087790;28;20376;-87
2022/04/26 04:09:40;;;;;;;1.20;0.80;;;22.10;99.90;;;;;;5087683;28;20720;-87
2022/04/26 04:12:08;;;;;;;2.53;0.70;;;22.10;99.90;;;;;;5087346;28;20372;-87
2022/04/26 04:14:35;;;;;;;1.50;0.70;;;21.90;99.90;;;;;;5087352;28;20360;-87
2022/04/26 04:17:02;;;;;;;1.90;0.75;;;21.70;99.90;;;;;;5087238;28;20868;-87
2022/04/26 04:19:30;;;;;;;2.20;0.70;;;21.60;99.90;;;;;;5087377;28;20969;-87
2022/04/26 04:21:57;;;;;;;1.23;0.63;;;21.70;99.90;;;;;;5087200;28;20368;-87
2022/04/26 04:24:24;;;;;;;1.15;0.70;;;21.70;99.90;;;;;;5087420;28;20426;-87
2022/04/26 04:26:50;;;;;;;1.30;0.68;;;21.60;99.90;;;;;;5087147;28;20368;-87
2022/04/26 04:29:17;;;;;;;1.03;0.70;;;21.50;99.90;;;;;;5087197;28;20889;-86
2022/04/26 04:31:45;;;;;;;0.90;0.70;;;21.40;99.90;;;;;;5087039;28;20408;-87
2022/04/26 04:34:12;;;;;;;1.33;0.90;;;21.50;99.90;;;;;;5086864;28;20396;-87
2022/04/26 04:36:39;;;;;;;2.15;0.90;;;21.70;99.90;;;;;;5086878;28;20483;-88
2022/04/26 04:39:06;;;;;;;1.48;0.80;;;21.90;99.90;;;;;;5087001;28;20376;-87
2022/04/26 04:41:36;;;;;;;2.05;0.70;;;22.00;99.90;;;;;;5086897;28;20438;-87
2022/04/26 04:44:07;;;;;;;1.20;0.70;;;21.80;99.90;;;;;;5086766;28;20411;-88
2022/04/26 04:46:34;;;;;;;1.10;0.80;;;21.70;99.90;;;;;;5086697;28;20376;-87
2022/04/26 04:49:01;;;;;;;1.48;0.80;;;21.70;99.90;;;;;;5067915;28;20464;-87
2022/04/26 04:51:29;;;;;;;2.08;0.90;;;21.50;99.90;;;;;;5086684;28;20875;-87
2022/04/26 04:53:56;;;;;;;1.27;0.73;;;21.50;99.90;;;;;;5086743;28;20749;-87
2022/04/26 04:56:24;;;;;;;1.08;0.80;;;21.80;99.90;;;;;;5086490;28;20379;-87
2022/04/26 04:58:53;;;;;;;0.88;0.77;;;21.90;99.90;;;;;;5086834;28;20392;-87
2022/04/26 05:01:20;;;;;;;2.10;0.80;;;21.80;99.90;;;;;;5086865;28;20871;-87
2022/04/26 05:03:46;;;;;;;1.95;0.77;;;21.70;99.90;;;;;;5086732;28;20381;-87
2022/04/26 05:06:18;;;;;;;1.20;0.70;;;21.80;99.90;;;;;;5068407;28;20390;-87
2022/04/26 05:08:46;;;;;;;1.15;0.80;;;21.80;99.90;;;;;;5086861;28;20373;-87
2022/04/26 05:11:13;;;;;;;1.73;0.60;;;21.80;99.90;;;;;;5086603;28;20377;-87
2022/04/26 05:13:40;;;;;;;1.02;0.70;;;21.60;99.90;;;;;;5086554;28;20380;-87
2022/04/26 05:16:07;;;;;;;0.82;0.70;;;21.30;99.90;;;;;;5086440;28;20373;-88
2022/04/26 05:18:34;;;;;;;1.70;0.70;;;21.30;99.90;;;;;;5086399;28;20884;-87
2022/04/26 05:21:01;;;;;;;2.70;0.70;;;21.30;99.90;;;;;;5086560;28;20884;-87
2022/04/26 05:26:13;;;;;;;0.98;0.60;;;21.20;99.90;;;;;;5086636;28;20862;-87
2022/04/26 05:28:40;;;;;;;3.10;0.70;;;21.10;99.90;;;;;;5086510;28;20856;-87
2022/04/26 05:31:08;;;;;;;0.77;0.50;;;21.00;99.90;;;;;;5086479;28;20384;-86
2022/04/26 05:33:35;;;;;;;1.52;0.60;;;21.00;99.90;;;;;;5086282;28;20556;-87
2022/04/26 05:36:02;;;;;;;2.60;0.60;;;20.90;99.90;;;;;;5086346;28;20376;-87
2022/04/26 05:38:29;;;;;;;2.30;0.70;;;20.90;99.90;;;;;;5086307;28;20509;-87
2022/04/26 05:40:56;;;;;;;1.23;0.60;;;20.90;99.90;;;;;;5085222;28;20430;-88
2022/04/26 05:43:23;;;;;;;1.83;0.60;;;20.90;99.90;;;;;;5086605;28;20794;-88
2022/04/26 05:45:50;;;;;;;1.80;0.70;;;20.90;99.90;;;;;;5086373;28;20815;-87
2022/04/26 05:48:17;;;;;;;2.40;0.70;;;20.90;99.90;;;;;;5087213;28;20381;-87
2022/04/26 05:50:44;;;;;;;1.75;0.73;;;20.80;99.90;;;;;;5087758;28;20381;-87
2022/04/26 05:53:11;;;;;;;0.87;0.67;;;20.70;99.90;;;;;;5089989;28;20380;-87
2022/04/26 05:55:42;;;;;;;2.17;0.70;;;20.60;99.90;;;;;;5098320;28;20372;-88
2022/04/26 05:58:10;;;;;;;1.55;0.73;;;20.60;99.90;;;;;;5092061;28;20427;-87
2022/04/26 06:00:37;;;;;;;2.60;0.70;;;20.40;99.90;;;;;;5090129;28;20546;-87
2022/04/26 06:03:05;;;;;;;3.15;0.70;;;20.40;99.90;;;;;;5090038;28;20439;-87
2022/04/26 06:05:32;;;;;;;1.67;0.83;;;20.20;99.90;;;;;;5090255;28;20430;-86
2022/04/26 06:07:59;;;;;;;0.82;0.70;;;20.20;99.90;;;;;;5090876;28;20588;-88
2022/04/26 06:10:27;;;;;;;2.20;0.70;;;20.10;99.90;;;;;;5072742;28;20368;-87
2022/04/26 06:12:55;;;;;;;1.75;0.77;;;20.00;99.90;;;;;;5093368;28;20450;-86
2022/04/26 06:15:22;;;;;;;1.35;0.75;;;19.90;99.90;;;;;;5094805;28;20433;-86
2022/04/26 06:17:49;;;;;;;1.67;0.70;;;19.90;99.90;;;;;;5090864;28;20479;-88
2022/04/26 06:20:16;;;;;;;1.00;0.70;;;19.70;99.90;;;;;;5090668;28;20471;-86
2022/04/26 06:22:43;;;;;;;2.50;0.73;;;19.70;99.90;;;;;;5088528;28;20381;-86
2022/04/26 06:25:10;;;;;;;2.63;0.80;;;19.60;99.90;;;;;;5089746;28;20430;-88
2022/04/26 06:27:37;;;;;;;0.80;0.70;;;19.50;99.90;;;;;;5090912;28;20929;-87
2022/04/26 06:30:05;;;;;;;1.65;1.00;;;19.40;99.90;;;;;;5091509;28;20364;-87
2022/04/26 06:32:32;;;;;;;2.25;0.98;;;19.40;99.90;;;;;;5092492;28;20434;-87
2022/04/26 06:34:59;;;;;;;1.60;0.90;;;19.30;99.90;;;;;;5091072;28;20471;-87
2022/04/26 06:37:26;;;;;;;2.05;0.90;;;19.30;99.90;;;;;;5073803;28;20404;-87
2022/04/26 06:39:56;;;;;;;2.13;0.90;;;19.20;99.90;;;;;;5091674;28;20368;-87
2022/04/26 06:42:23;;;;;;;2.42;0.98;;;19.20;99.90;;;;;;5093639;28;20369;-87
2022/04/26 06:44:50;;;;;;;2.35;0.95;;;19.10;99.90;;;;;;5095211;28;20422;-86
2022/04/26 06:47:17;;;;;;;1.33;0.80;;;19.70;99.90;;;;;;5093626;28;20876;-87
2022/04/26 06:49:47;;;;;;;1.40;0.80;;;19.00;99.90;;;;;;5093320;28;20408;-86
2022/04/26 06:52:14;;;;;;;1.70;0.80;;;18.90;99.90;;;;;;5097090;28;20388;-87
2022/04/26 06:54:41;;;;;;;1.55;1.00;;;18.90;99.90;;;;;;5078405;28;20381;-87
2022/04/26 06:57:08;;;;;;;2.20;1.00;;;18.90;99.90;;;;;;5094127;28;20423;-87
2022/04/26 06:59:35;;;;;;;5.03;1.08;;;18.80;99.90;;;;;;5072271;28;20394;-87
2022/04/26 07:02:02;;;;;;;2.70;1.20;;;18.80;99.90;;;;;;5088974;28;20444;-87
2022/04/26 07:04:29;;;;;;;3.70;1.00;;;18.70;99.90;;;;;;5070714;28;20908;-87
2022/04/26 07:06:56;;;;;;;2.23;1.00;;;18.70;99.90;;;;;;5088623;28;20774;-87
2022/04/26 07:09:23;;;;;;;4.37;0.93;;;18.60;99.90;;;;;;5088415;28;20377;-86
2022/04/26 07:11:51;;;;;;;2.73;1.10;;;18.50;99.90;;;;;;5087673;28;20368;-87
2022/04/26 07:14:18;;;;;;;2.03;1.00;;;18.50;99.90;;;;;;5088522;28;20372;-87
2022/04/26 07:16:49;;;;;;;3.88;1.05;;;18.50;99.90;;;;;;5070809;28;20826;-86
2022/04/26 07:19:19;;;;;;;3.53;1.10;;;18.40;99.90;;;;;;5088457;28;20376;-85
2022/04/26 07:21:47;;;;;;;2.90;1.00;;;18.30;99.90;;;;;;5088318;28;20388;-86
2022/04/26 07:24:16;;;;;;;3.95;1.38;;;18.30;99.90;;;;;;5088175;28;20369;-87
2022/04/26 07:26:43;;;;;;;3.22;1.40;;;18.30;99.90;;;;;;5069813;28;20872;-87
2022/04/26 07:29:10;;;;;;;2.70;1.40;;;18.30;99.90;;;;;;5088241;28;20859;-88
2022/04/26 07:31:38;;;;;;;3.45;1.98;;;18.20;99.90;;;;;;5088022;28;20373;-87
2022/04/26 07:34:24;;;;;;;4.38;1.95;;;18.20;99.90;;;;;;5091840;28;20420;-85
2022/04/26 07:37:02;;;;;;;4.97;2.10;;;18.10;99.90;;;;;;5076270;28;20400;-86
2022/04/26 07:39:30;;;;;;;4.13;1.90;;;18.10;99.90;;;;;;5094675;28;20383;-86
2022/04/26 07:41:57;;;;;;;4.43;2.00;;;18.10;99.90;;;;;;5088626;28;20455;-87
2022/04/26 07:44:24;;;;;;;5.10;2.00;;;18.00;99.90;;;;;;5087774;28;20369;-87
2022/04/26 07:46:53;;;;;;;3.83;2.05;;;18.00;99.90;;;;;;5087749;28;20373;-87
2022/04/26 07:49:23;;;;;;;3.95;1.90;;;18.00;99.90;;;;;;5087907;28;20463;-87
2022/04/26 07:51:51;;;;;;;3.60;1.80;;;18.00;99.90;;;;;;5088075;28;20376;-87
2022/04/26 07:54:19;;;;;;;3.97;1.88;;;18.00;99.90;;;;;;5086996;28;20429;-87
2022/04/26 07:56:46;;;;;;;4.47;2.10;;;18.00;99.90;;;;;;5087824;28;20446;-88
2022/04/26 07:59:14;;;;;;;4.07;1.60;;;17.90;99.90;;;;;;5088546;28;20373;-88
2022/04/26 08:01:41;;;;;;;4.70;1.50;;;17.90;99.90;;;;;;5070472;28;20778;-88
2022/04/26 08:04:08;;;;;;;17.60;12.17;;;17.90;99.90;;;;;;5088304;28;20860;-86
2022/04/26 08:06:35;;;;;;;14.93;10.07;;;17.90;99.90;;;;;;5088335;28;20369;-86
2022/04/26 08:09:02;;;;;;;6.40;3.28;;;17.90;99.90;;;;;;5088492;28;20380;-86
2022/04/26 08:11:29;;;;;;;9.32;5.15;;;17.90;99.90;;;;;;5092639;28;20371;-86
2022/04/26 08:13:57;;;;;;;7.43;4.50;;;17.90;99.90;;;;;;5102043;28;20376;-87
2022/04/26 08:16:24;;;;;;;4.25;2.58;;;17.90;99.90;;;;;;5099793;28;20364;-86
2022/04/26 08:18:51;;;;;;;5.47;2.20;;;17.80;99.90;;;;;;5099667;28;20388;-87
2022/04/26 08:21:18;;;;;;;3.67;1.98;;;17.80;99.90;;;;;;5101913;28;20364;-86
2022/04/26 08:29:18;;;;;;;4.33;1.67;;;17.70;99.90;;;;;;5100296;28;20382;-87
2022/04/26 08:31:45;;;;;;;4.05;1.60;;;17.70;99.90;;;;;;5099097;28;20383;-86
2022/04/26 08:34:12;;;;;;;2.55;1.60;;;17.70;99.90;;;;;;5098699;28;20404;-86
2022/04/26 08:36:40;;;;;;;4.63;1.67;;;17.70;99.90;;;;;;5091026;28;20400;-85
2022/04/26 08:39:07;;;;;;;3.47;1.70;;;17.60;99.90;;;;;;5090119;28;20458;-87
2022/04/26 08:41:34;;;;;;;3.80;2.00;;;17.60;99.90;;;;;;5089062;28;20364;-86
2022/04/26 08:44:01;;;;;;;5.10;1.95;;;17.70;99.90;;;;;;5088567;28;20380;-86
2022/04/26 08:50:59;;;;;;;6.28;2.00;;;17.80;99.90;;;;;;5072312;28;20732;-86
2022/04/26 08:52:06;;;;;;;10.98;2.22;;;17.90;99.90;;;;;;5087313;28;20413;-86
2022/04/26 08:54:34;;;;;;;7.63;2.10;;;17.90;99.90;;;;;;5091682;28;20380;-87
2022/04/26 08:57:02;;;;;;;7.75;2.00;;;17.90;99.90;;;;;;5087764;28;20404;-88
2022/04/26 08:59:31;;;;;;;6.55;2.00;;;17.90;99.90;;;;;;5087637;28;20368;-88
2022/04/26 09:02:20;;;;;;;8.43;2.40;;;17.90;99.90;;;;;;5089754;28;20388;-87
2022/04/26 09:04:52;;;;;;;10.38;2.30;;;17.80;99.90;;;;;;5087150;28;20368;-88
2022/04/26 09:07:33;;;;;;;11.63;2.27;;;17.80;99.90;;;;;;5069142;28;20880;-86
2022/04/26 09:10:11;;;;;;;9.57;2.30;;;17.90;99.90;;;;;;5087750;28;20381;-87
2022/04/26 09:13:09;;;;;;;12.45;2.70;;;17.90;99.90;;;;;;5087368;28;20492;-88
2022/04/26 09:15:52;;;;;;;7.45;2.33;;;17.90;99.90;;;;;;5087347;28;20376;-87
2022/04/26 09:18:27;;;;;;;13.52;5.85;;;17.90;99.90;;;;;;5085718;28;20946;-87
2022/04/26 09:21:07;;;;;;;12.43;2.80;;;18.00;99.90;;;;;;5087455;28;20376;-88
2022/04/26 09:23:34;;;;;;;9.57;2.55;;;17.90;99.90;;;;;;5087954;28;20379;-88
2022/04/26 09:26:12;;;;;;;15.50;3.08;;;17.90;99.90;;;;;;5088937;28;20368;-88
2022/04/26 09:28:43;;;;;;;9.13;2.70;;;17.90;99.90;;;;;;5086772;28;20864;-87
2022/04/26 09:31:24;;;;;;;7.93;2.53;;;17.90;99.90;;;;;;5086924;28;20446;-88
2022/04/26 09:34:04;;;;;;;8.25;2.72;;;17.90;99.90;;;;;;5086879;28;20888;-88
2022/04/26 09:36:35;;;;;;;7.47;2.60;;;17.90;99.90;;;;;;5090451;28;20735;-88
2022/04/26 09:39:07;;;;;;;9.40;3.20;;;17.80;99.90;;;;;;5090721;28;20373;-89
2022/04/26 09:41:34;;;;;;;10.25;3.13;;;17.80;99.90;;;;;;5072489;28;20372;-86
2022/04/26 09:44:08;;;;;;;10.93;3.05;;;17.50;99.90;;;;;;5090579;28;20388;-87
2022/04/26 09:46:44;;;;;;;11.10;3.50;;;17.30;99.90;;;;;;5072373;28;20749;-88
2022/04/26 09:49:17;;;;;;;12.07;3.43;;;17.20;99.90;;;;;;5073228;28;20376;-88
2022/04/26 09:51:46;;;;;;;13.57;3.97;;;17.20;99.90;;;;;;5091306;28;20364;-89
2022/04/26 09:54:14;;;;;;;15.32;4.50;;;17.20;99.90;;;;;;5090850;28;20454;-87
2022/04/26 09:56:44;;;;;;;16.95;4.97;;;17.20;99.90;;;;;;5090355;28;20372;-87
2022/04/26 09:59:37;;;;;;;14.85;5.43;;;17.10;99.90;;;;;;5071922;28;20475;-87
2022/04/26 10:02:08;;;;;;;15.13;5.13;;;16.90;99.90;;;;;;5090180;28;20369;-87
2022/04/26 10:04:46;;;;;;;10.60;4.45;;;16.90;99.90;;;;;;5090282;28;20385;-86
2022/04/26 10:07:17;;;;;;;11.10;4.60;;;16.80;99.90;;;;;;5090488;28;20391;-85
2022/04/26 10:09:46;;;;;;;12.10;4.70;;;16.70;99.90;;;;;;5089928;28;20873;-86
2022/04/26 10:12:14;;;;;;;9.95;4.75;;;16.70;99.90;;;;;;5089895;28;20380;-86
2022/04/26 10:14:42;;;;;;;11.07;4.82;;;16.70;99.90;;;;;;5086892;28;20388;-87
2022/04/26 10:17:10;;;;;;;9.65;4.63;;;16.80;99.90;;;;;;5089604;28;20729;-86
2022/04/26 10:19:43;;;;;;;9.68;4.80;;;16.80;99.90;;;;;;5071586;28;20393;-87
2022/04/26 10:22:11;;;;;;;11.45;5.60;;;16.80;99.90;;;;;;5071714;28;20380;-87
2022/04/26 10:24:42;;;;;;;10.43;5.80;;;16.80;99.90;;;;;;5089768;28;20391;-87
2022/04/26 10:27:35;;;;;;;10.43;5.45;;;16.80;99.90;;;;;;5071604;28;20387;-87
2022/04/26 10:30:02;;;;;;;10.87;5.70;;;16.80;99.90;;;;;;5086999;28;20485;-87
2022/04/26 10:32:43;;;;;;;9.60;5.10;;;16.80;99.90;;;;;;5089278;28;20383;-87
2022/04/26 10:35:25;;;;;;;12.63;5.70;;;16.80;99.90;;;;;;5087491;28;20793;-87
2022/04/26 10:38:12;;;;;;;13.57;5.85;;;16.70;99.90;;;;;;5070586;28;20415;-85
2022/04/26 10:41:16;;;;;;;10.82;5.70;;;16.70;99.90;;;;;;5083707;28;20425;-89
2022/04/26 10:44:21;;;;;;;9.07;5.47;;;16.70;99.90;;;;;;5042112;28;20490;-86
2022/04/26 10:47:09;;;;;;;7.97;5.40;;;16.80;99.90;;;;;;5041019;28;20387;-86
2022/04/26 10:49:36;;;;;;;7.55;5.10;;;16.80;99.90;;;;;;4948601;28;20741;-86
2022/04/26 10:52:26;;;;;;;8.90;5.75;;;16.80;99.90;;;;;;4948622;28;20412;-85
2022/04/26 10:54:58;;;;;;;11.32;7.18;;;16.80;99.90;;;;;;4959317;28;20401;-86
2022/04/26 10:57:31;;;;;;;12.15;7.68;;;16.70;99.90;;;;;;4967372;28;20457;-89
2022/04/26 11:00:02;;;;;;;12.55;8.57;;;16.60;99.90;;;;;;4948506;28;20874;-86
2022/04/26 11:02:31;;;;;;;12.25;9.98;;;16.50;99.90;;;;;;4967773;28;20401;-86
2022/04/26 11:05:04;;;;;;;14.52;10.98;;;16.60;99.90;;;;;;4966850;28;20409;-88
2022/04/26 11:07:32;;;;;;;22.08;12.30;;;16.60;99.90;;;;;;4951783;28;20390;-84
2022/04/26 11:10:00;;;;;;;19.60;11.13;;;16.60;99.90;;;;;;4957173;28;20744;-85
2022/04/26 11:12:29;;;;;;;14.85;9.70;;;16.70;99.90;;;;;;4957681;28;20452;-85
2022/04/26 11:15:04;;;;;;;14.02;11.20;;;16.50;99.90;;;;;;4962549;28;20409;-85
2022/04/26 11:17:31;;;;;;;13.95;10.20;;;16.50;99.90;;;;;;4971752;28;20399;-86
2022/04/26 11:20:20;;;;;;;14.18;9.93;;;16.50;99.90;;;;;;4995246;28;20403;-89
2022/04/26 11:22:58;;;;;;;11.85;8.68;;;16.40;99.90;;;;;;4989778;28;20377;-86
2022/04/26 11:28:21;;;;;;;17.17;9.70;;;16.30;99.90;;;;;;5080019;28;20885;-87
2022/04/26 11:30:57;;;;;;;18.55;10.20;;;16.30;99.90;;;;;;5070511;28;20392;-86
2022/04/26 11:33:27;;;;;;;11.40;9.30;;;16.30;99.90;;;;;;5072163;28;22445;-87
2022/04/26 11:35:57;;;;;;;15.13;13.60;;;16.30;99.90;;;;;;5081234;28;20475;-88
2022/04/26 11:38:27;;;;;;;20.25;18.25;;;16.30;99.90;;;;;;5074992;28;20440;-87
2022/04/26 11:40:55;;;;;;;16.13;14.43;;;16.30;99.90;;;;;;5090801;28;20388;-87
2022/04/26 11:43:28;;;;;;;19.30;12.93;;;16.30;99.90;;;;;;5087610;28;20722;-90
2022/04/26 11:45:57;;;;;;;13.98;11.10;;;16.30;99.90;;;;;;5078630;28;20484;-88
2022/04/26 11:48:33;;;;;;;13.93;10.05;;;16.30;99.90;;;;;;5073499;28;20479;-88
2022/04/26 11:51:01;;;;;;;13.90;9.00;;;16.30;99.90;;;;;;5050034;28;20378;-88
2022/04/26 11:53:32;;;;;;;13.32;10.30;;;16.30;99.90;;;;;;5044613;28;20382;-89
2022/04/26 11:56:03;;;;;;;18.15;15.27;;;16.40;99.90;;;;;;5050173;28;21220;-87
2022/04/26 11:58:40;;;;;;;21.98;19.23;;;16.40;99.90;;;;;;5055731;28;20404;-90
2022/04/26 12:01:11;;;;;;;23.10;19.00;;;16.40;99.90;;;;;;5088331;28;20373;-88
2022/04/26 12:03:49;;;;;;;22.80;17.52;;;16.50;99.90;;;;;;5090292;28;20372;-88
2022/04/26 12:06:40;;;;;;;18.70;14.75;;;16.50;99.90;;;;;;5071621;28;20467;-88
2022/04/26 12:09:17;;;;;;;20.23;13.98;;;16.50;99.90;;;;;;5069648;28;20445;-90
2022/04/26 12:11:45;;;;;;;22.35;15.35;;;16.40;99.90;;;;;;5088117;28;20373;-91
2022/04/26 12:14:15;;;;;;;22.15;16.45;;;16.30;99.90;;;;;;5089921;28;20388;-89
2022/04/26 12:16:43;;;;;;;16.17;12.85;;;16.30;99.90;;;;;;5088736;28;20372;-87
2022/04/26 12:19:12;;;;;;;16.60;13.05;;;16.30;99.90;;;;;;5061736;28;20403;-87
2022/04/26 12:21:47;;;;;;;19.25;14.32;;;16.30;99.90;;;;;;5067528;28;20464;-90
2022/04/26 12:24:21;;;;;;;25.65;16.42;;;16.20;99.90;;;;;;5086811;28;20761;-89
2022/04/26 12:26:56;;;;;;;25.48;17.80;;;16.30;99.90;;;;;;5080902;28;20388;-87
2022/04/26 12:29:39;;;;;;;23.98;16.85;;;16.30;99.90;;;;;;5066225;28;20424;-88
2022/04/26 12:32:08;;;;;;;23.60;18.50;;;16.30;99.90;;;;;;5072791;28;20496;-88
2022/04/26 12:34:36;;;;;;;20.13;15.75;;;16.20;99.90;;;;;;5082376;28;20404;-87
2022/04/26 12:37:08;;;;;;;23.17;16.60;;;16.30;99.90;;;;;;5100102;28;20400;-86
2022/04/26 12:39:41;;;;;;;23.83;19.17;;;16.30;99.90;;;;;;5099889;28;20437;-88
2022/04/26 12:42:16;;;;;;;22.73;17.90;;;16.30;99.90;;;;;;5089476;28;20425;-88
2022/04/26 12:45:12;;;;;;;21.92;17.80;;;16.30;99.90;;;;;;5078667;28;20450;-88
2022/04/26 12:50:28;;;;;;;28.58;21.23;;;16.30;99.90;;;;;;5082795;28;20432;-88
2022/04/26 12:52:57;;;;;;;26.00;19.80;;;16.30;99.90;;;;;;5083062;28;20378;-89
2022/04/26 12:55:31;;;;;;;26.23;18.88;;;16.30;99.90;;;;;;5080126;28;20396;-89
2022/04/26 12:58:00;;;;;;;25.38;18.17;;;16.30;99.90;;;;;;5076160;28;20525;-88
2022/04/26 13:00:31;;;;;;;24.98;18.42;;;16.30;99.90;;;;;;5074590;28;20379;-90
2022/04/26 13:03:05;;;;;;;30.27;19.35;;;16.70;99.90;;;;;;5085967;28;20388;-89
2022/04/26 13:05:47;;;;;;;21.83;17.48;;;16.30;99.90;;;;;;5064918;28;20876;-88
2022/04/26 13:08:19;;;;;;;25.50;18.92;;;16.30;99.90;;;;;;5067051;28;20381;-88
2022/04/26 13:10:47;;;;;;;22.05;16.35;;;16.30;99.90;;;;;;5070196;28;20373;-89
2022/04/26 13:13:16;;;;;;;21.80;17.05;;;16.30;99.90;;;;;;5072524;28;20937;-88
2022/04/26 13:15:44;;;;;;;20.05;16.48;;;16.30;99.90;;;;;;5063187;28;20376;-89
2022/04/26 13:18:14;;;;;;;21.25;17.63;;;16.40;99.90;;;;;;5055514;28;20461;-88
2022/04/26 13:20:41;;;;;;;26.08;18.90;;;16.30;99.90;;;;;;5072497;28;20867;-88
2022/04/26 13:23:08;;;;;;;25.45;19.15;;;16.30;99.90;;;;;;5072940;28;20397;-88
2022/04/26 13:25:35;;;;;;;26.73;19.88;;;16.20;99.90;;;;;;5074206;28;20822;-88
2022/04/26 13:28:05;;;;;;;27.70;20.77;;;16.10;99.90;;;;;;5071225;28;20400;-87
2022/04/26 13:30:33;;;;;;;26.13;21.05;;;16.10;99.90;;;;;;5074872;28;20511;-87
2022/04/26 13:33:00;;;;;;;27.15;21.20;;;16.10;99.90;;;;;;5079947;28;20772;-88
2022/04/26 13:35:27;;;;;;;28.67;21.83;;;16.10;99.90;;;;;;5071667;28;20392;-88
2022/04/26 13:37:58;;;;;;;29.77;21.80;;;16.00;99.90;;;;;;5088143;28;20396;-88
2022/04/26 13:40:28;;;;;;;29.63;22.73;;;16.00;99.90;;;;;;5081319;28;20389;-88
2022/04/26 13:42:56;;;;;;;25.60;19.95;;;16.00;99.90;;;;;;5083606;28;21149;-88
2022/04/26 13:45:23;;;;;;;26.05;21.67;;;16.00;99.90;;;;;;5088990;28;20449;-88
2022/04/26 13:47:51;;;;;;;28.10;22.35;;;16.00;99.90;;;;;;5087309;28;20899;-88
2022/04/26 13:50:18;;;;;;;33.30;24.52;;;15.90;99.90;;;;;;5088621;28;20473;-88
2022/04/26 13:52:45;;;;;;;36.20;24.15;;;15.90;99.90;;;;;;5079672;28;20389;-88
2022/04/26 13:55:17;;;;;;;34.33;23.63;;;15.90;99.90;;;;;;5070046;28;20389;-88
2022/04/26 13:57:44;;;;;;;35.38;24.15;;;15.90;99.90;;;;;;5088390;28;20395;-88
2022/04/26 14:00:12;;;;;;;34.80;25.13;;;15.90;99.90;;;;;;5077546;28;20951;-88
2022/04/26 14:02:41;;;;;;;34.78;25.10;;;15.80;99.90;;;;;;5051661;28;20376;-88
2022/04/26 14:05:09;;;;;;;34.00;25.75;;;15.80;99.90;;;;;;5068646;28;20397;-88
2022/04/26 14:07:36;;;;;;;30.48;22.70;;;15.70;99.90;;;;;;5071993;28;20384;-88
2022/04/26 14:10:04;;;;;;;28.25;22.05;;;15.70;99.90;;;;;;5085017;28;20404;-88
2022/04/26 14:12:31;;;;;;;34.22;24.08;;;15.70;99.90;;;;;;5086463;28;20412;-88
2022/04/26 14:23:13;;;;;;;28.23;22.67;;;15.80;99.90;;;;;;5085778;28;20431;-88
2022/04/26 14:25:41;;;;;;;29.93;22.93;;;15.80;99.90;;;;;;5076622;28;20436;-88
2022/04/26 14:28:08;;;;;;;31.73;23.30;;;15.80;99.90;;;;;;5055474;28;20393;-88
2022/04/26 14:30:35;;;;;;;33.53;22.90;;;15.80;99.90;;;;;;5085500;28;20404;-88
2022/04/26 14:33:02;;;;;;;31.10;21.67;;;15.80;99.90;;;;;;5058322;28;20812;-89
2022/04/26 14:35:31;;;;;;;27.73;20.58;;;15.80;99.90;;;;;;5079316;28;20760;-88
2022/04/26 14:38:02;;;;;;;23.30;18.85;;;15.80;99.90;;;;;;5070235;28;20405;-88
2022/04/26 14:40:29;;;;;;;25.27;18.40;;;15.80;99.90;;;;;;5067072;28;20405;-88
2022/04/26 14:42:56;;;;;;;21.40;15.38;;;15.80;99.90;;;;;;5081344;28;20408;-88
2022/04/26 14:45:23;;;;;;;20.52;14.40;;;15.90;99.90;;;;;;5066111;28;20459;-89
2022/04/26 14:47:50;;;;;;;16.85;14.07;;;15.90;99.90;;;;;;5073529;28;20441;-88
2022/04/26 14:50:18;;;;;;;17.60;15.00;;;16.00;99.90;;;;;;5086813;28;20385;-88
2022/04/26 14:52:45;;;;;;;20.05;15.85;;;16.00;99.90;;;;;;5086967;28;20384;-88
2022/04/26 14:55:13;;;;;;;18.63;15.25;;;15.90;99.90;;;;;;5078149;28;20404;-88
2022/04/26 14:57:40;;;;;;;19.50;15.77;;;15.90;99.90;;;;;;5073621;28;21198;-89
2022/04/26 15:00:08;;;;;;;20.98;15.10;;;15.90;99.90;;;;;;5072357;28;20409;-88
2022/04/26 15:02:38;;;;;;;17.55;14.82;;;15.90;99.90;;;;;;5075942;28;20388;-88
2022/04/26 15:05:07;;;;;;;21.27;15.33;;;15.90;99.90;;;;;;5088271;28;20845;-89
2022/04/26 15:10:20;;;;;;;17.67;14.20;;;16.00;99.90;;;;;;5076795;28;20459;-89
2022/04/26 15:18:17;;;;;;;17.67;14.53;;;16.00;99.90;;;;;;5069776;28;20940;-89
2022/04/26 15:20:50;;;;;;;21.77;15.40;;;16.00;99.90;;;;;;5069217;28;20378;-88
2022/04/26 15:23:18;;;;;;;21.27;15.60;;;16.00;99.90;;;;;;5076054;28;20784;-89
2022/04/26 15:25:52;;;;;;;20.52;15.52;;;16.00;99.90;;;;;;5081602;28;20389;-89
2022/04/26 15:28:20;;;;;;;23.15;15.40;;;16.00;99.90;;;;;;5088083;28;20717;-88
2022/04/26 15:30:49;;;;;;;22.05;14.30;;;16.00;99.90;;;;;;5077723;28;20380;-88
2022/04/26 15:33:17;;;;;;;14.73;12.70;;;16.00;99.90;;;;;;5085549;28;20392;-89
2022/04/26 15:35:44;;;;;;;18.42;13.63;;;16.00;99.90;;;;;;5088394;28;20377;-88
2022/04/26 15:38:12;;;;;;;18.58;14.00;;;15.90;99.90;;;;;;5082186;28;20414;-88
2022/04/26 15:40:41;;;;;;;16.98;14.13;;;15.80;99.90;;;;;;5075087;28;20899;-88
2022/04/26 15:43:08;;;;;;;17.45;14.60;;;15.80;99.90;;;;;;5065439;28;20520;-88
2022/04/26 15:45:36;;;;;;;22.95;15.02;;;15.80;99.90;;;;;;5087511;28;20415;-89
2022/04/26 15:48:04;;;;;;;20.02;16.08;;;15.80;99.90;;;;;;5096234;28;20399;-87
2022/04/26 15:50:31;;;;;;;19.65;16.05;;;15.70;99.90;;;;;;5107093;28;20395;-87
2022/04/26 15:52:58;;;;;;;19.88;16.52;;;15.70;99.90;;;;;;5083142;28;20871;-88
2022/04/26 15:55:25;;;;;;;23.40;17.40;;;15.60;99.90;;;;;;5068413;28;20370;-88
2022/04/26 15:57:54;;;;;;;21.50;17.60;;;15.60;99.90;;;;;;5067937;28;20409;-87
2022/04/26 16:00:21;;;;;;;22.55;18.35;;;15.60;99.90;;;;;;5068886;28;20382;-88
2022/04/26 16:02:50;;;;;;;20.88;18.48;;;15.60;99.90;;;;;;5067628;28;20428;-88
2022/04/26 16:05:18;;;;;;;19.02;15.85;;;15.60;99.90;;;;;;5078230;28;20423;-87
2022/04/26 16:07:45;;;;;;;18.23;16.17;;;15.60;99.90;;;;;;5087728;28;20737;-88
2022/04/26 16:21:13;;;;;;;20.50;17.40;;;15.60;99.90;;;;;;5067289;28;20412;-88
2022/04/26 16:23:40;;;;;;;20.58;16.70;;;15.60;99.90;;;;;;5067239;28;20889;-88
2022/04/26 16:26:07;;;;;;;25.05;17.23;;;15.60;99.90;;;;;;5049019;28;20440;-88
2022/04/26 16:28:37;;;;;;;20.42;16.92;;;15.60;99.90;;;;;;5067125;28;20397;-88
2022/04/26 16:31:06;;;;;;;17.95;14.50;;;15.60;99.90;;;;;;5067133;28;20425;-88
2022/04/26 16:33:33;;;;;;;14.85;13.02;;;15.60;99.90;;;;;;5067910;28;20409;-88
2022/04/26 16:36:00;;;;;;;18.52;13.93;;;15.60;99.90;;;;;;5049056;28;20431;-88
2022/04/26 16:38:27;;;;;;;18.63;14.60;;;15.70;99.90;;;;;;5066797;28;20437;-88
2022/04/26 16:40:56;;;;;;;18.80;14.63;;;15.70;99.90;;;;;;5067044;28;20374;-88
2022/04/26 16:43:24;;;;;;;14.52;12.77;;;15.70;99.90;;;;;;5066197;28;20385;-89
2022/04/26 16:45:51;;;;;;;17.25;12.52;;;15.70;99.90;;;;;;5066651;28;20370;-88
2022/04/26 16:48:18;;;;;;;15.98;11.80;;;15.60;99.90;;;;;;5070366;28;20392;-88
2022/04/26 16:50:45;;;;;;;13.57;10.25;;;15.60;99.90;;;;;;5087228;28;20387;-89
2022/04/26 16:53:12;;;;;;;15.18;9.38;;;15.70;99.90;;;;;;5068782;28;20713;-88
2022/04/26 16:55:40;;;;;;;9.95;8.52;;;15.70;99.90;;;;;;5087077;28;20403;-90
2022/04/26 16:58:08;;;;;;;10.65;8.13;;;15.70;99.90;;;;;;5084733;28;20404;-88
2022/04/26 17:00:35;;;;;;;10.48;8.15;;;15.70;99.90;;;;;;5057701;28;20754;-89
2022/04/26 17:03:02;;;;;;;10.88;8.75;;;15.60;99.90;;;;;;5066824;28;20434;-88
2022/04/26 17:05:29;;;;;;;9.65;7.60;;;15.60;99.90;;;;;;5066689;28;20386;-89
2022/04/26 17:07:56;;;;;;;14.95;11.65;;;15.50;99.90;;;;;;5068899;28;20806;-89
2022/04/26 17:10:25;;;;;;;15.57;13.97;;;15.60;99.90;;;;;;5087114;28;20498;-89
2022/04/26 17:12:52;;;;;;;19.10;17.17;;;15.60;99.90;;;;;;5085381;28;20384;-89